sensor_id;sensor_type;location;lat;lon;timestamp;P1;durP1;ratioP1;P2;durP2;ratioP2
48052;SDS011;33824;51.600;5.718;2022-12-07T00:00:30;11.60;;;4.78;;
48052;SDS011;33824;51.600;5.718;2022-12-07T00:03:08;11.02;;;5.68;;
48052;SDS011;33824;51.600;5.718;2022-12-07T00:05:34;14.63;;;5.28;;
48052;SDS011;33824;51.600;5.718;2022-12-07T00:07:59;12.32;;;5.95;;
48052;SDS011;33824;51.600;5.718;2022-12-07T00:10:25;11.95;;;5.18;;
48052;SDS011;33824;51.600;5.718;2022-12-07T00:12:50;12.80;;;5.00;;
48052;SDS011;33824;51.600;5.718;2022-12-07T00:15:16;12.10;;;5.28;;
48052;SDS011;33824;51.600;5.718;2022-12-07T00:17:42;10.63;;;4.97;;
48052;SDS011;33824;51.600;5.718;2022-12-07T00:20:07;8.07;;;4.82;;
48052;SDS011;33824;51.600;5.718;2022-12-07T00:22:34;13.20;;;6.28;;
48052;SDS011;33824;51.600;5.718;2022-12-07T00:24:59;12.95;;;5.85;;
48052;SDS011;33824;51.600;5.718;2022-12-07T00:27:26;12.05;;;5.47;;
48052;SDS011;33824;51.600;5.718;2022-12-07T00:29:52;9.50;;;5.35;;
48052;SDS011;33824;51.600;5.718;2022-12-07T00:32:17;9.18;;;5.25;;
48052;SDS011;33824;51.600;5.718;2022-12-07T00:34:43;12.68;;;6.28;;
48052;SDS011;33824;51.600;5.718;2022-12-07T00:37:09;8.80;;;5.13;;
48052;SDS011;33824;51.600;5.718;2022-12-07T00:39:34;10.23;;;5.80;;
48052;SDS011;33824;51.600;5.718;2022-12-07T00:42:00;11.95;;;5.65;;
48052;SDS011;33824;51.600;5.718;2022-12-07T00:44:25;12.30;;;5.85;;
48052;SDS011;33824;51.600;5.718;2022-12-07T00:46:51;11.30;;;5.55;;
48052;SDS011;33824;51.600;5.718;2022-12-07T00:49:16;14.25;;;6.22;;
48052;SDS011;33824;51.600;5.718;2022-12-07T00:51:42;10.30;;;5.93;;
48052;SDS011;33824;51.600;5.718;2022-12-07T00:54:07;12.32;;;5.93;;
48052;SDS011;33824;51.600;5.718;2022-12-07T00:56:33;18.42;;;6.13;;
48052;SDS011;33824;51.600;5.718;2022-12-07T00:59:02;15.90;;;6.15;;
48052;SDS011;33824;51.600;5.718;2022-12-07T01:01:30;12.95;;;5.80;;
48052;SDS011;33824;51.600;5.718;2022-12-07T01:03:58;9.05;;;5.35;;
48052;SDS011;33824;51.600;5.718;2022-12-07T01:06:26;10.40;;;5.90;;
48052;SDS011;33824;51.600;5.718;2022-12-07T01:08:53;13.13;;;5.75;;
48052;SDS011;33824;51.600;5.718;2022-12-07T01:11:23;11.07;;;5.78;;
48052;SDS011;33824;51.600;5.718;2022-12-07T01:13:53;9.95;;;5.78;;
48052;SDS011;33824;51.600;5.718;2022-12-07T01:16:21;13.77;;;5.53;;
48052;SDS011;33824;51.600;5.718;2022-12-07T01:18:49;12.65;;;5.65;;
48052;SDS011;33824;51.600;5.718;2022-12-07T01:21:36;14.65;;;6.05;;
48052;SDS011;33824;51.600;5.718;2022-12-07T01:24:06;13.25;;;5.40;;
48052;SDS011;33824;51.600;5.718;2022-12-07T01:26:35;10.18;;;5.65;;
48052;SDS011;33824;51.600;5.718;2022-12-07T01:29:01;10.43;;;5.55;;
48052;SDS011;33824;51.600;5.718;2022-12-07T01:31:27;11.05;;;5.65;;
48052;SDS011;33824;51.600;5.718;2022-12-07T01:33:54;10.60;;;5.80;;
48052;SDS011;33824;51.600;5.718;2022-12-07T01:36:23;10.15;;;5.88;;
48052;SDS011;33824;51.600;5.718;2022-12-07T01:39:06;9.40;;;5.07;;
48052;SDS011;33824;51.600;5.718;2022-12-07T01:41:37;12.80;;;5.80;;
48052;SDS011;33824;51.600;5.718;2022-12-07T01:46:50;9.07;;;4.88;;
48052;SDS011;33824;51.600;5.718;2022-12-07T01:49:28;13.57;;;6.05;;
48052;SDS011;33824;51.600;5.718;2022-12-07T01:51:58;11.05;;;6.18;;
48052;SDS011;33824;51.600;5.718;2022-12-07T01:54:38;14.68;;;5.68;;
48052;SDS011;33824;51.600;5.718;2022-12-07T01:57:04;12.40;;;5.55;;
48052;SDS011;33824;51.600;5.718;2022-12-07T01:59:31;9.45;;;4.72;;
48052;SDS011;33824;51.600;5.718;2022-12-07T02:01:57;10.35;;;5.13;;
48052;SDS011;33824;51.600;5.718;2022-12-07T02:04:23;9.32;;;5.20;;
48052;SDS011;33824;51.600;5.718;2022-12-07T02:06:49;12.25;;;5.22;;
48052;SDS011;33824;51.600;5.718;2022-12-07T02:09:15;10.93;;;5.75;;
48052;SDS011;33824;51.600;5.718;2022-12-07T02:11:41;10.90;;;5.53;;
48052;SDS011;33824;51.600;5.718;2022-12-07T02:14:07;14.02;;;6.15;;
48052;SDS011;33824;51.600;5.718;2022-12-07T02:30:40;9.63;;;4.45;;
48052;SDS011;33824;51.600;5.718;2022-12-07T02:33:11;11.23;;;5.28;;
48052;SDS011;33824;51.600;5.718;2022-12-07T02:35:51;13.70;;;4.78;;
48052;SDS011;33824;51.600;5.718;2022-12-07T02:38:55;10.80;;;4.57;;
48052;SDS011;33824;51.600;5.718;2022-12-07T02:41:29;9.95;;;4.78;;
48052;SDS011;33824;51.600;5.718;2022-12-07T02:44:02;15.52;;;5.60;;
48052;SDS011;33824;51.600;5.718;2022-12-07T02:46:33;9.80;;;4.53;;
48052;SDS011;33824;51.600;5.718;2022-12-07T02:49:03;11.50;;;4.70;;
48052;SDS011;33824;51.600;5.718;2022-12-07T02:51:31;9.07;;;4.97;;
48052;SDS011;33824;51.600;5.718;2022-12-07T02:53:58;9.75;;;4.07;;
48052;SDS011;33824;51.600;5.718;2022-12-07T02:56:40;9.93;;;4.40;;
48052;SDS011;33824;51.600;5.718;2022-12-07T03:10:32;11.73;;;4.53;;
48052;SDS011;33824;51.600;5.718;2022-12-07T03:13:20;8.40;;;4.38;;
48052;SDS011;33824;51.600;5.718;2022-12-07T03:15:53;11.50;;;5.18;;
48052;SDS011;33824;51.600;5.718;2022-12-07T03:18:29;8.48;;;4.13;;
48052;SDS011;33824;51.600;5.718;2022-12-07T03:20:58;10.25;;;4.20;;
48052;SDS011;33824;51.600;5.718;2022-12-07T03:23:28;10.73;;;4.53;;
48052;SDS011;33824;51.600;5.718;2022-12-07T03:25:58;12.23;;;4.78;;
48052;SDS011;33824;51.600;5.718;2022-12-07T03:28:26;13.10;;;5.22;;
48052;SDS011;33824;51.600;5.718;2022-12-07T03:31:02;7.25;;;3.95;;
48052;SDS011;33824;51.600;5.718;2022-12-07T03:33:46;9.75;;;4.50;;
48052;SDS011;33824;51.600;5.718;2022-12-07T03:36:24;8.23;;;3.92;;
48052;SDS011;33824;51.600;5.718;2022-12-07T03:38:56;10.68;;;4.70;;
48052;SDS011;33824;51.600;5.718;2022-12-07T03:41:28;13.82;;;4.65;;
48052;SDS011;33824;51.600;5.718;2022-12-07T03:43:56;10.13;;;4.43;;
48052;SDS011;33824;51.600;5.718;2022-12-07T03:49:27;9.10;;;4.00;;
48052;SDS011;33824;51.600;5.718;2022-12-07T03:55:00;8.73;;;4.00;;
48052;SDS011;33824;51.600;5.718;2022-12-07T04:00:15;9.00;;;3.28;;
48052;SDS011;33824;51.600;5.718;2022-12-07T04:02:41;9.02;;;3.25;;
48052;SDS011;33824;51.600;5.718;2022-12-07T04:05:08;8.30;;;3.60;;
48052;SDS011;33824;51.600;5.718;2022-12-07T04:07:35;6.28;;;3.28;;
48052;SDS011;33824;51.600;5.718;2022-12-07T04:10:01;10.27;;;3.63;;
48052;SDS011;33824;51.600;5.718;2022-12-07T04:12:26;9.40;;;3.72;;
48052;SDS011;33824;51.600;5.718;2022-12-07T04:14:52;11.07;;;4.15;;
48052;SDS011;33824;51.600;5.718;2022-12-07T04:17:17;7.38;;;3.92;;
48052;SDS011;33824;51.600;5.718;2022-12-07T04:19:43;6.28;;;3.35;;
48052;SDS011;33824;51.600;5.718;2022-12-07T04:22:08;9.23;;;3.80;;
48052;SDS011;33824;51.600;5.718;2022-12-07T04:24:34;7.80;;;3.60;;
48052;SDS011;33824;51.600;5.718;2022-12-07T04:27:00;13.10;;;4.07;;
48052;SDS011;33824;51.600;5.718;2022-12-07T04:29:26;9.68;;;3.67;;
48052;SDS011;33824;51.600;5.718;2022-12-07T04:32:13;9.63;;;3.33;;
48052;SDS011;33824;51.600;5.718;2022-12-07T04:34:39;6.70;;;3.05;;
48052;SDS011;33824;51.600;5.718;2022-12-07T04:37:05;5.15;;;2.88;;
48052;SDS011;33824;51.600;5.718;2022-12-07T04:39:31;5.80;;;3.00;;
48052;SDS011;33824;51.600;5.718;2022-12-07T04:41:58;10.40;;;3.30;;
48052;SDS011;33824;51.600;5.718;2022-12-07T04:44:25;5.32;;;2.78;;
48052;SDS011;33824;51.600;5.718;2022-12-07T04:46:51;9.70;;;3.00;;
48052;SDS011;33824;51.600;5.718;2022-12-07T04:49:18;8.80;;;2.95;;
48052;SDS011;33824;51.600;5.718;2022-12-07T04:51:44;10.45;;;3.00;;
48052;SDS011;33824;51.600;5.718;2022-12-07T04:54:11;9.15;;;3.03;;
48052;SDS011;33824;51.600;5.718;2022-12-07T04:56:37;7.20;;;2.50;;
48052;SDS011;33824;51.600;5.718;2022-12-07T04:59:03;7.07;;;2.75;;
48052;SDS011;33824;51.600;5.718;2022-12-07T05:01:29;5.88;;;3.03;;
48052;SDS011;33824;51.600;5.718;2022-12-07T05:03:55;6.03;;;3.05;;
48052;SDS011;33824;51.600;5.718;2022-12-07T05:06:21;9.38;;;3.15;;
48052;SDS011;33824;51.600;5.718;2022-12-07T05:08:47;8.43;;;3.00;;
48052;SDS011;33824;51.600;5.718;2022-12-07T05:11:12;8.10;;;2.95;;
48052;SDS011;33824;51.600;5.718;2022-12-07T05:13:59;6.35;;;3.20;;
48052;SDS011;33824;51.600;5.718;2022-12-07T05:16:25;8.27;;;3.30;;
48052;SDS011;33824;51.600;5.718;2022-12-07T05:18:51;4.45;;;2.45;;
48052;SDS011;33824;51.600;5.718;2022-12-07T05:21:17;11.20;;;3.45;;
48052;SDS011;33824;51.600;5.718;2022-12-07T05:23:43;7.07;;;3.45;;
48052;SDS011;33824;51.600;5.718;2022-12-07T05:26:08;8.27;;;2.78;;
48052;SDS011;33824;51.600;5.718;2022-12-07T05:28:34;6.38;;;3.08;;
48052;SDS011;33824;51.600;5.718;2022-12-07T05:31:00;8.85;;;3.05;;
48052;SDS011;33824;51.600;5.718;2022-12-07T05:33:25;5.80;;;2.65;;
48052;SDS011;33824;51.600;5.718;2022-12-07T05:35:51;12.25;;;2.63;;
48052;SDS011;33824;51.600;5.718;2022-12-07T05:38:16;11.65;;;3.38;;
48052;SDS011;33824;51.600;5.718;2022-12-07T05:40:42;7.32;;;2.63;;
48052;SDS011;33824;51.600;5.718;2022-12-07T05:43:08;9.13;;;2.85;;
48052;SDS011;33824;51.600;5.718;2022-12-07T05:45:33;12.02;;;3.30;;
48052;SDS011;33824;51.600;5.718;2022-12-07T05:47:59;9.60;;;3.13;;
48052;SDS011;33824;51.600;5.718;2022-12-07T05:50:24;6.80;;;2.88;;
48052;SDS011;33824;51.600;5.718;2022-12-07T05:52:50;5.25;;;2.33;;
48052;SDS011;33824;51.600;5.718;2022-12-07T05:55:15;6.72;;;2.83;;
48052;SDS011;33824;51.600;5.718;2022-12-07T05:57:41;5.55;;;2.92;;
48052;SDS011;33824;51.600;5.718;2022-12-07T06:00:26;8.93;;;2.72;;
48052;SDS011;33824;51.600;5.718;2022-12-07T06:02:52;9.13;;;2.95;;
48052;SDS011;33824;51.600;5.718;2022-12-07T06:05:17;10.73;;;3.03;;
48052;SDS011;33824;51.600;5.718;2022-12-07T06:07:45;11.40;;;2.88;;
48052;SDS011;33824;51.600;5.718;2022-12-07T06:10:10;9.80;;;3.10;;
48052;SDS011;33824;51.600;5.718;2022-12-07T06:12:36;10.30;;;3.28;;
48052;SDS011;33824;51.600;5.718;2022-12-07T06:15:03;8.85;;;3.13;;
48052;SDS011;33824;51.600;5.718;2022-12-07T06:17:29;4.95;;;2.83;;
48052;SDS011;33824;51.600;5.718;2022-12-07T06:19:54;9.27;;;2.97;;
48052;SDS011;33824;51.600;5.718;2022-12-07T06:22:20;10.15;;;3.55;;
48052;SDS011;33824;51.600;5.718;2022-12-07T06:24:46;10.15;;;2.83;;
48052;SDS011;33824;51.600;5.718;2022-12-07T06:27:11;7.00;;;3.22;;
48052;SDS011;33824;51.600;5.718;2022-12-07T06:29:37;8.55;;;3.22;;
48052;SDS011;33824;51.600;5.718;2022-12-07T06:32:03;7.38;;;2.70;;
48052;SDS011;33824;51.600;5.718;2022-12-07T06:34:28;12.93;;;3.63;;
48052;SDS011;33824;51.600;5.718;2022-12-07T06:36:54;9.75;;;2.78;;
48052;SDS011;33824;51.600;5.718;2022-12-07T06:39:26;5.65;;;2.92;;
48052;SDS011;33824;51.600;5.718;2022-12-07T06:41:53;8.20;;;3.22;;
48052;SDS011;33824;51.600;5.718;2022-12-07T06:44:19;8.60;;;3.35;;
48052;SDS011;33824;51.600;5.718;2022-12-07T06:46:47;16.70;;;3.50;;
48052;SDS011;33824;51.600;5.718;2022-12-07T06:49:13;7.97;;;3.20;;
48052;SDS011;33824;51.600;5.718;2022-12-07T06:51:39;8.13;;;3.17;;
48052;SDS011;33824;51.600;5.718;2022-12-07T06:54:09;5.10;;;3.08;;
48052;SDS011;33824;51.600;5.718;2022-12-07T06:56:37;6.75;;;2.85;;
48052;SDS011;33824;51.600;5.718;2022-12-07T06:59:03;8.13;;;2.90;;
48052;SDS011;33824;51.600;5.718;2022-12-07T07:01:30;6.07;;;3.13;;
48052;SDS011;33824;51.600;5.718;2022-12-07T07:03:56;10.10;;;3.00;;
48052;SDS011;33824;51.600;5.718;2022-12-07T07:06:22;9.02;;;3.15;;
48052;SDS011;33824;51.600;5.718;2022-12-07T07:08:47;8.80;;;3.50;;
48052;SDS011;33824;51.600;5.718;2022-12-07T07:11:13;10.70;;;4.72;;
48052;SDS011;33824;51.600;5.718;2022-12-07T07:13:38;9.70;;;4.22;;
48052;SDS011;33824;51.600;5.718;2022-12-07T07:16:04;14.57;;;3.83;;
48052;SDS011;33824;51.600;5.718;2022-12-07T07:18:30;10.02;;;4.05;;
48052;SDS011;33824;51.600;5.718;2022-12-07T07:20:56;8.15;;;3.70;;
48052;SDS011;33824;51.600;5.718;2022-12-07T07:23:22;10.73;;;4.00;;
48052;SDS011;33824;51.600;5.718;2022-12-07T07:25:48;9.18;;;3.85;;
48052;SDS011;33824;51.600;5.718;2022-12-07T07:28:14;11.43;;;3.75;;
48052;SDS011;33824;51.600;5.718;2022-12-07T07:30:40;6.22;;;3.42;;
48052;SDS011;33824;51.600;5.718;2022-12-07T07:33:05;9.70;;;3.38;;
48052;SDS011;33824;51.600;5.718;2022-12-07T07:35:32;7.78;;;3.83;;
48052;SDS011;33824;51.600;5.718;2022-12-07T07:37:59;7.78;;;3.72;;
48052;SDS011;33824;51.600;5.718;2022-12-07T07:40:26;10.55;;;6.43;;
48052;SDS011;33824;51.600;5.718;2022-12-07T07:42:52;21.73;;;9.70;;
48052;SDS011;33824;51.600;5.718;2022-12-07T07:45:20;16.95;;;8.18;;
48052;SDS011;33824;51.600;5.718;2022-12-07T07:47:47;13.95;;;6.88;;
48052;SDS011;33824;51.600;5.718;2022-12-07T07:50:13;15.88;;;6.72;;
48052;SDS011;33824;51.600;5.718;2022-12-07T07:52:39;12.35;;;5.90;;
48052;SDS011;33824;51.600;5.718;2022-12-07T07:55:05;13.75;;;6.07;;
48052;SDS011;33824;51.600;5.718;2022-12-07T07:57:33;17.17;;;6.28;;
48052;SDS011;33824;51.600;5.718;2022-12-07T08:00:00;15.35;;;5.38;;
48052;SDS011;33824;51.600;5.718;2022-12-07T08:02:26;10.70;;;5.43;;
48052;SDS011;33824;51.600;5.718;2022-12-07T08:04:55;9.73;;;5.32;;
48052;SDS011;33824;51.600;5.718;2022-12-07T08:07:20;11.63;;;5.05;;
48052;SDS011;33824;51.600;5.718;2022-12-07T08:09:46;13.70;;;6.13;;
48052;SDS011;33824;51.600;5.718;2022-12-07T08:12:11;15.30;;;6.93;;
48052;SDS011;33824;51.600;5.718;2022-12-07T08:14:37;14.93;;;7.25;;
48052;SDS011;33824;51.600;5.718;2022-12-07T08:17:03;17.95;;;7.22;;
48052;SDS011;33824;51.600;5.718;2022-12-07T08:19:28;12.80;;;6.63;;
48052;SDS011;33824;51.600;5.718;2022-12-07T08:21:54;24.55;;;9.40;;
48052;SDS011;33824;51.600;5.718;2022-12-07T08:24:21;12.00;;;7.45;;
48052;SDS011;33824;51.600;5.718;2022-12-07T08:26:47;12.48;;;5.90;;
48052;SDS011;33824;51.600;5.718;2022-12-07T08:29:13;13.57;;;5.93;;
48052;SDS011;33824;51.600;5.718;2022-12-07T08:31:39;9.90;;;4.50;;
48052;SDS011;33824;51.600;5.718;2022-12-07T08:34:05;12.35;;;4.03;;
48052;SDS011;33824;51.600;5.718;2022-12-07T08:36:30;12.35;;;3.97;;
48052;SDS011;33824;51.600;5.718;2022-12-07T08:38:56;12.90;;;4.70;;
48052;SDS011;33824;51.600;5.718;2022-12-07T08:41:21;11.93;;;5.25;;
48052;SDS011;33824;51.600;5.718;2022-12-07T08:43:47;12.52;;;5.25;;
48052;SDS011;33824;51.600;5.718;2022-12-07T08:48:54;15.73;;;4.75;;
48052;SDS011;33824;51.600;5.718;2022-12-07T08:51:23;11.27;;;4.20;;
48052;SDS011;33824;51.600;5.718;2022-12-07T08:53:49;10.15;;;4.13;;
48052;SDS011;33824;51.600;5.718;2022-12-07T08:56:17;12.00;;;4.07;;
48052;SDS011;33824;51.600;5.718;2022-12-07T08:58:43;7.50;;;3.67;;
48052;SDS011;33824;51.600;5.718;2022-12-07T09:01:09;9.00;;;4.25;;
48052;SDS011;33824;51.600;5.718;2022-12-07T09:03:35;10.27;;;3.63;;
48052;SDS011;33824;51.600;5.718;2022-12-07T09:06:00;10.68;;;3.50;;
48052;SDS011;33824;51.600;5.718;2022-12-07T09:08:28;7.95;;;3.42;;
48052;SDS011;33824;51.600;5.718;2022-12-07T09:10:58;6.80;;;3.20;;
48052;SDS011;33824;51.600;5.718;2022-12-07T09:13:24;13.73;;;4.30;;
48052;SDS011;33824;51.600;5.718;2022-12-07T09:15:49;10.98;;;3.63;;
48052;SDS011;33824;51.600;5.718;2022-12-07T09:18:17;5.30;;;3.88;;
48052;SDS011;33824;51.600;5.718;2022-12-07T09:20:42;11.00;;;3.33;;
48052;SDS011;33824;51.600;5.718;2022-12-07T09:23:08;18.67;;;4.47;;
48052;SDS011;33824;51.600;5.718;2022-12-07T09:25:34;11.30;;;3.45;;
48052;SDS011;33824;51.600;5.718;2022-12-07T09:28:00;12.43;;;3.53;;
48052;SDS011;33824;51.600;5.718;2022-12-07T09:30:26;7.93;;;3.17;;
48052;SDS011;33824;51.600;5.718;2022-12-07T09:32:56;12.13;;;4.13;;
48052;SDS011;33824;51.600;5.718;2022-12-07T09:35:22;13.02;;;3.65;;
48052;SDS011;33824;51.600;5.718;2022-12-07T09:37:49;12.32;;;4.38;;
48052;SDS011;33824;51.600;5.718;2022-12-07T09:40:15;8.50;;;3.45;;
48052;SDS011;33824;51.600;5.718;2022-12-07T09:42:47;7.45;;;3.08;;
48052;SDS011;33824;51.600;5.718;2022-12-07T09:45:17;8.07;;;3.10;;
48052;SDS011;33824;51.600;5.718;2022-12-07T09:47:46;8.90;;;3.45;;
48052;SDS011;33824;51.600;5.718;2022-12-07T09:50:13;8.07;;;3.35;;
48052;SDS011;33824;51.600;5.718;2022-12-07T09:52:41;13.40;;;2.70;;
48052;SDS011;33824;51.600;5.718;2022-12-07T09:55:10;8.60;;;3.13;;
48052;SDS011;33824;51.600;5.718;2022-12-07T09:57:38;9.18;;;3.10;;
48052;SDS011;33824;51.600;5.718;2022-12-07T10:00:09;12.10;;;2.92;;
48052;SDS011;33824;51.600;5.718;2022-12-07T10:02:44;8.90;;;2.83;;
48052;SDS011;33824;51.600;5.718;2022-12-07T10:05:18;6.55;;;2.92;;
48052;SDS011;33824;51.600;5.718;2022-12-07T10:07:48;5.00;;;2.28;;
48052;SDS011;33824;51.600;5.718;2022-12-07T10:10:14;7.43;;;2.53;;
48052;SDS011;33824;51.600;5.718;2022-12-07T10:12:53;8.98;;;2.75;;
48052;SDS011;33824;51.600;5.718;2022-12-07T10:15:21;10.30;;;2.30;;
48052;SDS011;33824;51.600;5.718;2022-12-07T10:17:48;8.13;;;2.40;;
48052;SDS011;33824;51.600;5.718;2022-12-07T10:22:57;7.68;;;2.08;;
48052;SDS011;33824;51.600;5.718;2022-12-07T10:25:28;5.45;;;2.60;;
48052;SDS011;33824;51.600;5.718;2022-12-07T10:28:02;7.65;;;2.42;;
48052;SDS011;33824;51.600;5.718;2022-12-07T10:30:46;6.63;;;2.25;;
48052;SDS011;33824;51.600;5.718;2022-12-07T10:33:27;5.90;;;2.00;;
48052;SDS011;33824;51.600;5.718;2022-12-07T10:35:54;11.10;;;2.38;;
48052;SDS011;33824;51.600;5.718;2022-12-07T10:38:20;8.38;;;2.25;;
48052;SDS011;33824;51.600;5.718;2022-12-07T10:40:46;9.63;;;2.83;;
48052;SDS011;33824;51.600;5.718;2022-12-07T10:49:04;7.93;;;1.92;;
48052;SDS011;33824;51.600;5.718;2022-12-07T10:51:38;4.53;;;1.40;;
48052;SDS011;33824;51.600;5.718;2022-12-07T10:54:22;7.85;;;1.83;;
48052;SDS011;33824;51.600;5.718;2022-12-07T11:00:19;10.63;;;1.85;;
48052;SDS011;33824;51.600;5.718;2022-12-07T11:05:39;6.80;;;1.70;;
48052;SDS011;33824;51.600;5.718;2022-12-07T11:11:00;6.50;;;1.90;;
48052;SDS011;33824;51.600;5.718;2022-12-07T11:24:40;10.10;;;1.80;;
48052;SDS011;33824;51.600;5.718;2022-12-07T11:30:13;8.70;;;2.35;;
48052;SDS011;33824;51.600;5.718;2022-12-07T11:33:01;9.25;;;1.75;;
48052;SDS011;33824;51.600;5.718;2022-12-07T11:38:38;8.70;;;1.50;;
48052;SDS011;33824;51.600;5.718;2022-12-07T11:41:09;6.00;;;1.50;;
48052;SDS011;33824;51.600;5.718;2022-12-07T11:43:54;7.25;;;2.08;;
48052;SDS011;33824;51.600;5.718;2022-12-07T11:46:27;7.63;;;2.55;;
48052;SDS011;33824;51.600;5.718;2022-12-07T11:49:17;8.52;;;2.05;;
48052;SDS011;33824;51.600;5.718;2022-12-07T11:52:05;14.90;;;2.83;;
48052;SDS011;33824;51.600;5.718;2022-12-07T11:54:42;2.92;;;1.52;;
48052;SDS011;33824;51.600;5.718;2022-12-07T11:57:16;12.10;;;1.88;;
48052;SDS011;33824;51.600;5.718;2022-12-07T11:59:52;9.50;;;1.55;;
48052;SDS011;33824;51.600;5.718;2022-12-07T12:02:26;4.78;;;1.60;;
48052;SDS011;33824;51.600;5.718;2022-12-07T12:07:52;3.97;;;1.70;;
48052;SDS011;33824;51.600;5.718;2022-12-07T12:13:29;8.05;;;1.48;;
48052;SDS011;33824;51.600;5.718;2022-12-07T12:19:15;13.50;;;1.60;;
48052;SDS011;33824;51.600;5.718;2022-12-07T12:21:48;9.48;;;2.35;;
48052;SDS011;33824;51.600;5.718;2022-12-07T12:24:25;6.88;;;1.60;;
48052;SDS011;33824;51.600;5.718;2022-12-07T12:26:59;18.13;;;2.20;;
48052;SDS011;33824;51.600;5.718;2022-12-07T12:32:04;6.40;;;1.55;;
48052;SDS011;33824;51.600;5.718;2022-12-07T12:40:52;5.82;;;1.60;;
48052;SDS011;33824;51.600;5.718;2022-12-07T12:49:41;9.33;;;1.60;;
48052;SDS011;33824;51.600;5.718;2022-12-07T12:51:42;4.85;;;1.70;;
48052;SDS011;33824;51.600;5.718;2022-12-07T12:54:11;11.57;;;1.92;;
48052;SDS011;33824;51.600;5.718;2022-12-07T12:59:21;3.15;;;1.10;;
48052;SDS011;33824;51.600;5.718;2022-12-07T13:01:48;4.47;;;1.13;;
48052;SDS011;33824;51.600;5.718;2022-12-07T13:04:23;7.45;;;1.20;;
48052;SDS011;33824;51.600;5.718;2022-12-07T13:06:56;4.68;;;1.15;;
48052;SDS011;33824;51.600;5.718;2022-12-07T13:09:31;5.25;;;1.27;;
48052;SDS011;33824;51.600;5.718;2022-12-07T13:12:03;2.58;;;0.80;;
48052;SDS011;33824;51.600;5.718;2022-12-07T13:17:03;5.47;;;1.30;;
48052;SDS011;33824;51.600;5.718;2022-12-07T13:24:56;5.00;;;1.10;;
48052;SDS011;33824;51.600;5.718;2022-12-07T13:27:22;6.43;;;2.28;;
48052;SDS011;33824;51.600;5.718;2022-12-07T13:29:54;11.07;;;2.10;;
48052;SDS011;33824;51.600;5.718;2022-12-07T13:32:23;4.90;;;1.07;;
48052;SDS011;33824;51.600;5.718;2022-12-07T13:34:51;7.28;;;1.38;;
48052;SDS011;33824;51.600;5.718;2022-12-07T13:39:49;5.30;;;1.52;;
48052;SDS011;33824;51.600;5.718;2022-12-07T13:42:19;4.55;;;1.15;;
48052;SDS011;33824;51.600;5.718;2022-12-07T13:44:47;4.03;;;0.88;;
48052;SDS011;33824;51.600;5.718;2022-12-07T13:47:17;6.47;;;1.08;;
48052;SDS011;33824;51.600;5.718;2022-12-07T13:49:52;4.57;;;0.80;;
48052;SDS011;33824;51.600;5.718;2022-12-07T13:52:20;4.50;;;1.23;;
48052;SDS011;33824;51.600;5.718;2022-12-07T13:57:21;3.97;;;1.23;;
48052;SDS011;33824;51.600;5.718;2022-12-07T13:59:49;6.35;;;0.98;;
48052;SDS011;33824;51.600;5.718;2022-12-07T14:05:14;7.05;;;1.20;;
48052;SDS011;33824;51.600;5.718;2022-12-07T14:07:58;6.28;;;1.55;;
48052;SDS011;33824;51.600;5.718;2022-12-07T14:10:33;5.03;;;1.83;;
48052;SDS011;33824;51.600;5.718;2022-12-07T14:13:00;3.83;;;1.58;;
48052;SDS011;33824;51.600;5.718;2022-12-07T14:15:31;4.60;;;0.90;;
48052;SDS011;33824;51.600;5.718;2022-12-07T14:17:59;6.57;;;1.67;;
48052;SDS011;33824;51.600;5.718;2022-12-07T14:23:02;3.47;;;1.00;;
48052;SDS011;33824;51.600;5.718;2022-12-07T14:25:47;4.82;;;1.63;;
48052;SDS011;33824;51.600;5.718;2022-12-07T14:28:27;4.35;;;1.05;;
48052;SDS011;33824;51.600;5.718;2022-12-07T14:30:55;4.65;;;1.33;;
48052;SDS011;33824;51.600;5.718;2022-12-07T14:33:20;9.55;;;1.67;;
48052;SDS011;33824;51.600;5.718;2022-12-07T14:35:47;4.10;;;1.35;;
48052;SDS011;33824;51.600;5.718;2022-12-07T14:38:12;3.28;;;1.27;;
48052;SDS011;33824;51.600;5.718;2022-12-07T14:40:38;8.43;;;2.22;;
48052;SDS011;33824;51.600;5.718;2022-12-07T14:43:10;5.43;;;1.55;;
48052;SDS011;33824;51.600;5.718;2022-12-07T14:45:39;5.88;;;1.60;;
48052;SDS011;33824;51.600;5.718;2022-12-07T14:48:05;6.55;;;1.27;;
48052;SDS011;33824;51.600;5.718;2022-12-07T14:50:35;4.65;;;1.17;;
48052;SDS011;33824;51.600;5.718;2022-12-07T14:53:11;11.30;;;1.17;;
48052;SDS011;33824;51.600;5.718;2022-12-07T14:55:39;3.13;;;0.82;;
48052;SDS011;33824;51.600;5.718;2022-12-07T14:58:05;7.65;;;0.75;;
48052;SDS011;33824;51.600;5.718;2022-12-07T15:00:31;2.63;;;0.73;;
48052;SDS011;33824;51.600;5.718;2022-12-07T15:02:58;2.20;;;0.60;;
48052;SDS011;33824;51.600;5.718;2022-12-07T15:05:24;6.70;;;0.90;;
48052;SDS011;33824;51.600;5.718;2022-12-07T15:07:49;5.75;;;0.90;;
48052;SDS011;33824;51.600;5.718;2022-12-07T15:10:17;7.80;;;1.42;;
48052;SDS011;33824;51.600;5.718;2022-12-07T15:12:45;12.77;;;2.30;;
48052;SDS011;33824;51.600;5.718;2022-12-07T15:15:11;2.67;;;1.17;;
48052;SDS011;33824;51.600;5.718;2022-12-07T15:17:38;3.60;;;0.60;;
48052;SDS011;33824;51.600;5.718;2022-12-07T15:20:04;1.20;;;0.50;;
48052;SDS011;33824;51.600;5.718;2022-12-07T15:22:30;5.40;;;0.90;;
48052;SDS011;33824;51.600;5.718;2022-12-07T15:24:57;2.25;;;1.00;;
48052;SDS011;33824;51.600;5.718;2022-12-07T15:27:22;6.63;;;1.42;;
48052;SDS011;33824;51.600;5.718;2022-12-07T15:29:48;1.67;;;1.30;;
48052;SDS011;33824;51.600;5.718;2022-12-07T15:32:14;5.45;;;1.23;;
48052;SDS011;33824;51.600;5.718;2022-12-07T15:34:40;3.97;;;1.90;;
48052;SDS011;33824;51.600;5.718;2022-12-07T15:37:05;6.72;;;2.67;;
48052;SDS011;33824;51.600;5.718;2022-12-07T15:39:31;5.75;;;2.15;;
48052;SDS011;33824;51.600;5.718;2022-12-07T15:41:57;8.13;;;3.80;;
48052;SDS011;33824;51.600;5.718;2022-12-07T15:44:22;10.20;;;2.92;;
48052;SDS011;33824;51.600;5.718;2022-12-07T15:47:07;6.97;;;1.92;;
48052;SDS011;33824;51.600;5.718;2022-12-07T15:49:32;5.65;;;1.52;;
48052;SDS011;33824;51.600;5.718;2022-12-07T15:51:58;8.27;;;3.15;;
48052;SDS011;33824;51.600;5.718;2022-12-07T15:54:25;4.35;;;2.58;;
48052;SDS011;33824;51.600;5.718;2022-12-07T15:56:52;6.13;;;1.80;;
48052;SDS011;33824;51.600;5.718;2022-12-07T15:59:20;6.70;;;2.53;;
48052;SDS011;33824;51.600;5.718;2022-12-07T16:01:45;3.25;;;1.55;;
48052;SDS011;33824;51.600;5.718;2022-12-07T16:04:11;3.47;;;1.92;;
48052;SDS011;33824;51.600;5.718;2022-12-07T16:06:37;4.68;;;0.95;;
48052;SDS011;33824;51.600;5.718;2022-12-07T16:09:03;5.65;;;1.13;;
48052;SDS011;33824;51.600;5.718;2022-12-07T16:11:32;2.47;;;0.95;;
48052;SDS011;33824;51.600;5.718;2022-12-07T16:13:57;4.05;;;1.50;;
48052;SDS011;33824;51.600;5.718;2022-12-07T16:16:23;6.38;;;1.92;;
48052;SDS011;33824;51.600;5.718;2022-12-07T16:18:49;4.60;;;1.77;;
48052;SDS011;33824;51.600;5.718;2022-12-07T16:21:16;3.33;;;1.70;;
48052;SDS011;33824;51.600;5.718;2022-12-07T16:23:43;11.20;;;1.73;;
48052;SDS011;33824;51.600;5.718;2022-12-07T16:26:13;5.05;;;2.30;;
48052;SDS011;33824;51.600;5.718;2022-12-07T16:28:43;4.18;;;1.60;;
48052;SDS011;33824;51.600;5.718;2022-12-07T16:31:13;4.70;;;1.83;;
48052;SDS011;33824;51.600;5.718;2022-12-07T16:33:42;4.30;;;1.73;;
48052;SDS011;33824;51.600;5.718;2022-12-07T16:36:09;6.47;;;1.85;;
48052;SDS011;33824;51.600;5.718;2022-12-07T16:38:36;5.85;;;1.50;;
48052;SDS011;33824;51.600;5.718;2022-12-07T16:41:03;5.55;;;1.38;;
48052;SDS011;33824;51.600;5.718;2022-12-07T16:43:30;2.25;;;0.90;;
48052;SDS011;33824;51.600;5.718;2022-12-07T16:45:55;2.30;;;1.50;;
48052;SDS011;33824;51.600;5.718;2022-12-07T16:48:21;6.05;;;1.73;;
48052;SDS011;33824;51.600;5.718;2022-12-07T16:50:47;6.05;;;2.03;;